Time;durP1;ratioP1;P1;durP2;ratioP2;P2;SDS_P1;SDS_P2;PMS_P1;PMS_P2;Temp;Humidity;BMP_temperature;BMP_pressure;BME280_temperature;BME280_humidity;BME280_pressure;Samples;Min_cycle;Max_cycle;Signal;HPM_P1;HPM_P2
2023/04/11 00:01:31;;;;;;;7.18;2.55;;;;;;;10.47;100.00;-18309.94;4946509;28;20043;-82
2023/04/11 00:03:57;;;;;;;7.85;2.40;;;;;;;10.44;100.00;-18309.13;4948590;28;20360;-81
2023/04/11 00:06:23;;;;;;;7.95;2.65;;;;;;;10.40;100.00;-18308.03;4942977;28;20292;-81
2023/04/11 00:08:49;;;;;;;9.40;2.55;;;;;;;10.39;100.00;-18307.88;4940813;28;20122;-82
2023/04/11 00:11:14;;;;;;;8.18;2.53;;;;;;;10.51;100.00;-18311.06;4939148;28;20130;-80
2023/04/11 00:13:41;;;;;;;11.20;3.20;;;;;;;10.51;100.00;-18311.06;4945957;28;20051;-81
2023/04/11 00:16:07;;;;;;;8.60;2.90;;;;;;;10.45;100.00;-18309.25;4942496;28;20043;-81
2023/04/11 00:18:34;;;;;;;14.55;3.42;;;;;;;10.48;100.00;-18310.22;4939915;28;20102;-82
2023/04/11 00:21:00;;;;;;;9.57;3.20;;;;;;;10.37;100.00;-18307.34;4940875;28;20043;-82
2023/04/11 00:23:25;;;;;;;8.18;2.97;;;;;;;10.48;100.00;-18310.09;4942041;28;20101;-84
2023/04/11 00:25:50;;;;;;;8.98;3.25;;;;;;;10.42;100.00;-18308.56;4944276;28;20047;-82
2023/04/11 00:28:16;;;;;;;11.18;3.55;;;;;;;10.41;100.00;-18308.31;4947747;28;20075;-82
2023/04/11 00:30:41;;;;;;;11.52;3.65;;;;;;;10.40;100.00;-18308.03;4944768;28;20062;-84
2023/04/11 00:33:06;;;;;;;9.63;4.38;;;;;;;10.37;100.00;-18307.19;4937580;28;20050;-81
2023/04/11 00:35:36;;;;;;;10.27;4.30;;;;;;;10.38;100.00;-18307.47;4939021;28;20102;-81
2023/04/11 00:38:02;;;;;;;13.55;3.28;;;;;;;10.28;100.00;-18304.72;4941096;28;20130;-83
2023/04/11 00:40:28;;;;;;;13.02;3.90;;;;;;;10.32;100.00;-18305.81;4946609;28;20448;-82
2023/04/11 00:42:55;;;;;;;13.60;3.85;;;;;;;10.31;100.00;-18305.56;4941632;28;20044;-82
2023/04/11 00:45:21;;;;;;;14.00;4.00;;;;;;;10.28;100.00;-18304.88;4946672;28;20525;-81
2023/04/11 00:47:46;;;;;;;9.52;4.05;;;;;;;10.28;100.00;-18304.88;4953130;28;20046;-81
2023/04/11 00:50:12;;;;;;;11.77;4.20;;;;;;;10.21;100.00;-18302.78;4951220;28;20554;-80
2023/04/11 00:52:38;;;;;;;14.45;4.53;;;;;;;10.16;100.00;-18301.56;4944230;28;20044;-81
2023/04/11 00:55:06;;;;;;;14.50;4.45;;;;;;;10.17;100.00;-18301.97;4942307;28;20066;-81
2023/04/11 00:57:32;;;;;;;13.13;4.60;;;;;;;10.13;100.00;-18300.75;4938487;28;20539;-82
2023/04/11 00:59:57;;;;;;;11.05;4.05;;;;;;;10.16;100.00;-18301.69;4947700;28;20118;-82
2023/04/11 01:02:25;;;;;;;10.75;4.65;;;;;;;10.21;100.00;-18302.94;4934562;28;20039;-81
2023/04/11 01:04:52;;;;;;;14.60;4.97;;;;;;;10.12;100.00;-18300.47;4936352;29;20114;-83
2023/04/11 01:07:18;;;;;;;12.57;4.45;;;;;;;10.12;100.00;-18300.47;4946748;28;20142;-82
2023/04/11 01:09:44;;;;;;;13.07;4.82;;;;;;;10.10;100.00;-18300.06;4942053;28;20044;-81
2023/04/11 01:12:11;;;;;;;15.98;5.18;;;;;;;10.18;100.00;-18302.09;4946616;28;20046;-82
2023/04/11 01:14:37;;;;;;;13.65;4.85;;;;;;;10.04;100.00;-18298.41;4933485;28;20168;-82
2023/04/11 01:17:02;;;;;;;14.45;4.75;;;;;;;10.04;100.00;-18298.41;4943545;28;20130;-80
2023/04/11 01:19:28;;;;;;;17.70;5.32;;;;;;;10.05;100.00;-18298.69;4930821;28;20372;-81
2023/04/11 01:21:55;;;;;;;15.98;4.85;;;;;;;10.00;100.00;-18297.16;4951174;28;20050;-82
2023/04/11 01:24:21;;;;;;;14.95;4.15;;;;;;;10.02;100.00;-18297.84;4942905;28;20048;-80
2023/04/11 01:26:46;;;;;;;14.98;5.28;;;;;;;10.11;100.00;-18300.31;4942504;28;20099;-81
2023/04/11 01:29:11;;;;;;;12.27;4.93;;;;;;;10.12;100.00;-18300.47;4948356;28;20059;-82
2023/04/11 01:31:37;;;;;;;18.42;5.18;;;;;;;10.11;100.00;-18300.19;4942205;28;20111;-80
2023/04/11 01:34:03;;;;;;;16.95;4.40;;;;;;;10.06;100.00;-18298.94;4943243;28;20131;-81
2023/04/11 01:36:30;;;;;;;22.88;5.78;;;;;;;10.08;100.00;-18299.38;4941394;28;20126;-81
2023/04/11 01:38:56;;;;;;;15.45;5.65;;;;;;;10.09;100.00;-18299.63;4944543;28;20074;-82
2023/04/11 01:41:24;;;;;;;20.08;5.85;;;;;;;10.11;100.00;-18300.31;4944439;28;20035;-81
2023/04/11 01:43:50;;;;;;;12.55;5.78;;;;;;;10.15;100.00;-18301.28;4942035;28;20043;-82
2023/04/11 01:46:15;;;;;;;14.50;5.50;;;;;;;10.12;100.00;-18300.47;4938451;28;20094;-81
2023/04/11 01:48:42;;;;;;;13.98;4.50;;;;;;;10.03;100.00;-18298.13;4940490;28;20036;-80
2023/04/11 01:51:07;;;;;;;15.45;4.95;;;;;;;10.12;100.00;-18300.59;4946412;28;20179;-82
2023/04/11 01:53:33;;;;;;;17.50;5.10;;;;;;;10.08;100.00;-18299.50;4941616;28;20564;-82
2023/04/11 01:55:58;;;;;;;18.40;5.07;;;;;;;10.04;100.00;-18298.41;4941388;28;20450;-82
2023/04/11 01:58:24;;;;;;;20.92;5.63;;;;;;;10.04;100.00;-18298.25;4941209;28;20043;-81
2023/04/11 02:00:49;;;;;;;20.00;5.00;;;;;;;9.96;100.00;-18296.19;4945172;28;20054;-82
2023/04/11 02:03:16;;;;;;;16.80;4.85;;;;;;;10.02;100.00;-18297.72;4951716;28;20103;-82
2023/04/11 02:05:41;;;;;;;18.58;4.95;;;;;;;9.94;100.00;-18295.66;4945065;28;20389;-81
2023/04/11 02:08:07;;;;;;;22.35;4.75;;;;;;;9.96;100.00;-18296.19;4942089;28;20054;-81
2023/04/11 02:10:32;;;;;;;20.20;4.82;;;;;;;9.98;100.00;-18296.75;4942992;28;20046;-83
2023/04/11 02:12:57;;;;;;;17.95;4.88;;;;;;;9.94;100.00;-18295.66;4943352;28;20221;-82
2023/04/11 02:15:23;;;;;;;18.77;4.57;;;;;;;9.83;100.00;-18292.75;4938355;28;20043;-83
2023/04/11 02:17:48;;;;;;;19.63;4.50;;;;;;;9.86;100.00;-18293.44;4956086;28;20085;-84
2023/04/11 02:20:14;;;;;;;18.17;4.15;;;;;;;9.87;100.00;-18293.72;4942162;28;20039;-84
2023/04/11 02:22:40;;;;;;;15.88;4.57;;;;;;;9.83;100.00;-18292.63;4942166;28;20043;-82
2023/04/11 02:25:06;;;;;;;16.13;4.63;;;;;;;9.80;100.00;-18291.81;4940216;28;20402;-81
2023/04/11 02:27:32;;;;;;;19.58;5.03;;;;;;;9.82;100.00;-18292.50;4944983;28;20094;-81
2023/04/11 02:29:59;;;;;;;26.55;6.07;;;;;;;9.85;100.00;-18293.31;4941468;28;20043;-82
2023/04/11 02:32:25;;;;;;;20.63;4.75;;;;;;;9.77;100.00;-18291.13;4944547;28;20039;-81
2023/04/11 02:34:50;;;;;;;25.48;4.97;;;;;;;9.74;100.00;-18290.16;4935062;28;20185;-81
2023/04/11 02:37:15;;;;;;;22.58;5.60;;;;;;;9.70;100.00;-18289.31;4937024;28;20044;-81
2023/04/11 02:39:41;;;;;;;19.67;4.82;;;;;;;9.69;100.00;-18289.06;4942102;28;20122;-82
2023/04/11 02:42:06;;;;;;;17.23;4.68;;;;;;;9.74;100.00;-18290.28;4946296;28;20063;-81
2023/04/11 02:44:31;;;;;;;18.77;4.88;;;;;;;9.72;100.00;-18289.75;4940369;28;20056;-82
2023/04/11 02:46:58;;;;;;;15.77;4.10;;;;;;;9.64;100.00;-18287.69;4942542;28;20054;-82
2023/04/11 02:49:23;;;;;;;26.52;4.93;;;;;;;9.60;100.00;-18286.44;4945164;28;20042;-83
2023/04/11 02:51:48;;;;;;;21.63;5.43;;;;;;;9.63;100.00;-18287.25;4954629;28;20100;-81
2023/04/11 02:54:14;;;;;;;17.83;4.78;;;;;;;9.59;100.00;-18286.31;4940811;28;20039;-84
2023/04/11 02:56:40;;;;;;;19.52;5.00;;;;;;;9.60;100.00;-18286.56;4936771;28;20063;-81
2023/04/11 02:59:05;;;;;;;24.20;5.03;;;;;;;9.58;100.00;-18286.03;4935368;28;20051;-81
2023/04/11 03:01:31;;;;;;;24.15;4.55;;;;;;;9.51;100.00;-18284.09;4941873;28;20723;-81
2023/04/11 03:03:57;;;;;;;17.65;5.47;;;;;;;9.58;100.00;-18286.03;4939171;28;20047;-83
2023/04/11 03:06:22;;;;;;;24.20;4.95;;;;;;;9.47;100.00;-18283.13;4941161;28;20503;-83
2023/04/11 03:08:48;;;;;;;24.75;5.15;;;;;;;9.56;100.00;-18285.34;4948445;28;20067;-83
2023/04/11 03:11:14;;;;;;;22.98;4.40;;;;;;;9.52;100.00;-18284.38;4941216;28;20102;-81
2023/04/11 03:13:41;;;;;;;25.20;5.57;;;;;;;9.59;100.00;-18286.31;4947207;28;20095;-84
2023/04/11 03:16:07;;;;;;;20.40;4.47;;;;;;;9.54;100.00;-18284.94;4951482;28;20054;-83
2023/04/11 03:18:32;;;;;;;23.73;5.43;;;;;;;9.61;100.00;-18286.72;4943845;28;20051;-81
2023/04/11 03:20:58;;;;;;;19.55;4.22;;;;;;;9.58;100.00;-18286.03;4937791;28;20380;-81
2023/04/11 03:23:23;;;;;;;24.48;5.40;;;;;;;9.61;100.00;-18286.84;4939283;28;20095;-81
2023/04/11 03:25:49;;;;;;;22.05;4.25;;;;;;;9.59;100.00;-18286.31;4935518;28;20290;-81
2023/04/11 03:28:15;;;;;;;17.77;4.15;;;;;;;9.53;100.00;-18284.50;4938012;28;20497;-81
2023/04/11 03:30:41;;;;;;;20.50;4.82;;;;;;;9.61;100.00;-18286.72;4936630;28;20386;-84
2023/04/11 03:33:07;;;;;;;21.73;4.40;;;;;;;9.57;100.00;-18285.75;4939517;28;20087;-83
2023/04/11 03:35:33;;;;;;;20.40;4.80;;;;;;;9.40;100.00;-18281.22;4943131;28;20050;-81
2023/04/11 03:37:58;;;;;;;19.90;4.60;;;;;;;9.46;100.00;-18282.72;4945615;28;20047;-81
2023/04/11 03:40:24;;;;;;;23.05;4.13;;;;;;;9.42;100.00;-18281.63;4942012;28;20050;-82
2023/04/11 03:42:50;;;;;;;16.02;4.15;;;;;;;9.47;100.00;-18283.13;4954464;28;20043;-81
2023/04/11 03:45:16;;;;;;;18.25;4.15;;;;;;;9.44;100.00;-18282.19;4941451;28;20047;-81
2023/04/11 03:47:42;;;;;;;14.30;3.42;;;;;;;9.41;100.00;-18281.34;4936606;28;20414;-83
2023/04/11 03:50:08;;;;;;;17.65;3.45;;;;;;;9.46;100.00;-18282.72;4934814;28;20051;-82
2023/04/11 03:52:34;;;;;;;15.75;3.22;;;;;;;9.37;100.00;-18280.25;4927881;28;20035;-82
2023/04/11 03:54:59;;;;;;;15.85;3.55;;;;;;;9.31;100.00;-18278.75;4940509;28;20051;-82
2023/04/11 03:57:26;;;;;;;14.05;3.25;;;;;;;9.28;100.00;-18277.91;4944032;28;20039;-84
2023/04/11 03:59:54;;;;;;;14.30;3.17;;;;;;;9.23;100.00;-18276.66;4952363;28;20240;-81
2023/04/11 04:02:20;;;;;;;11.95;2.70;;;;;;;9.21;100.00;-18276.13;4939799;28;20122;-83
2023/04/11 04:04:49;;;;;;;15.27;3.28;;;;;;;9.15;100.00;-18274.47;4937383;28;20598;-81
2023/04/11 04:07:16;;;;;;;16.25;3.20;;;;;;;9.16;100.00;-18274.75;4942669;28;20048;-81
2023/04/11 04:09:42;;;;;;;20.92;3.15;;;;;;;9.10;100.00;-18273.09;4937956;28;20466;-82
2023/04/11 04:12:07;;;;;;;13.45;3.28;;;;;;;9.16;100.00;-18274.75;4938650;28;20054;-81
2023/04/11 04:14:33;;;;;;;14.43;2.72;;;;;;;9.08;100.00;-18272.53;4942364;28;20053;-83
2023/04/11 04:16:58;;;;;;;13.73;2.75;;;;;;;9.11;100.00;-18273.38;4949608;28;20043;-82
2023/04/11 04:19:23;;;;;;;14.13;2.78;;;;;;;8.91;100.00;-18267.88;4944010;28;20078;-81
2023/04/11 04:21:49;;;;;;;16.00;3.95;;;;;;;8.94;100.00;-18268.84;4953735;28;20039;-82
2023/04/11 04:24:14;;;;;;;11.52;2.75;;;;;;;8.84;100.00;-18265.94;4941770;28;20047;-80
2023/04/11 04:26:40;;;;;;;10.75;2.50;;;;;;;8.78;100.00;-18264.56;4946889;28;20097;-81
2023/04/11 04:29:05;;;;;;;8.98;2.85;;;;;;;8.73;100.00;-18263.19;4945677;28;20098;-83
2023/04/11 04:31:33;;;;;;;13.30;2.70;;;;;;;8.70;100.00;-18262.38;4943617;28;20044;-83
2023/04/11 04:34:07;;;;;;;7.83;2.10;;;;;;;8.57;100.00;-18258.94;4949257;28;20506;-81
2023/04/11 04:36:44;;;;;;;6.82;2.30;;;;;;;8.50;100.00;-18257.00;4941999;28;20318;-81
2023/04/11 04:39:16;;;;;;;9.85;1.60;;;;;;;8.32;100.00;-18252.03;4938654;28;20031;-83
2023/04/11 04:41:42;;;;;;;12.40;2.03;;;;;;;8.13;100.00;-18247.09;4942840;28;20040;-84
2023/04/11 04:44:08;;;;;;;10.55;1.77;;;;;;;8.08;100.00;-18245.69;4941084;28;20035;-84
2023/04/11 04:46:35;;;;;;;7.78;2.25;;;;;;;8.05;100.00;-18244.75;4954748;28;20054;-82
2023/04/11 04:49:05;;;;;;;9.57;2.03;;;;;;;8.08;100.00;-18245.69;4944393;28;20050;-81
2023/04/11 04:51:30;;;;;;;12.40;2.03;;;;;;;8.11;100.00;-18246.38;4942549;28;20043;-81
2023/04/11 04:53:59;;;;;;;12.45;2.03;;;;;;;8.08;100.00;-18245.69;4939562;28;20609;-83
2023/04/11 04:56:27;;;;;;;7.83;2.50;;;;;;;8.12;100.00;-18246.66;4947308;28;20587;-82
2023/04/11 04:58:53;;;;;;;11.32;2.05;;;;;;;8.05;100.00;-18244.75;4944819;28;20061;-81
2023/04/11 05:01:19;;;;;;;10.38;2.22;;;;;;;8.02;100.00;-18243.91;4948791;28;20466;-83
2023/04/11 05:03:45;;;;;;;10.10;2.20;;;;;;;7.95;100.00;-18242.00;4941910;28;20055;-83
2023/04/11 05:06:11;;;;;;;13.38;2.70;;;;;;;8.01;100.00;-18243.63;4940165;28;20052;-83
2023/04/11 05:08:37;;;;;;;16.58;3.22;;;;;;;8.00;100.00;-18243.38;4940261;28;20384;-82
2023/04/11 05:11:02;;;;;;;14.68;3.35;;;;;;;8.04;100.00;-18244.47;4948880;28;20050;-84
2023/04/11 05:13:28;;;;;;;13.20;3.85;;;;;;;8.12;100.00;-18246.66;4945821;28;20043;-82
2023/04/11 05:15:53;;;;;;;14.52;2.88;;;;;;;8.17;100.00;-18248.03;4946112;28;20036;-84
2023/04/11 05:18:18;;;;;;;19.10;3.70;;;;;;;8.13;100.00;-18246.94;4939844;28;20361;-82
2023/04/11 05:20:44;;;;;;;14.32;3.15;;;;;;;8.14;100.00;-18247.22;4943060;28;20047;-81
2023/04/11 05:23:09;;;;;;;14.30;2.78;;;;;;;8.06;100.00;-18245.16;4944627;28;20094;-82
2023/04/11 05:25:34;;;;;;;16.17;3.50;;;;;;;8.10;100.00;-18246.13;4939516;28;20048;-84
2023/04/11 05:28:00;;;;;;;14.23;3.13;;;;;;;8.14;100.00;-18247.22;4940307;28;20047;-82
2023/04/11 05:30:25;;;;;;;17.67;4.57;;;;;;;8.24;100.00;-18249.97;4940335;28;20043;-83
2023/04/11 05:32:51;;;;;;;17.42;3.67;;;;;;;8.20;100.00;-18248.88;4941516;28;20051;-82
2023/04/11 05:35:16;;;;;;;13.15;3.17;;;;;;;8.23;100.00;-18249.69;4941735;29;20055;-83
2023/04/11 05:37:42;;;;;;;14.02;2.75;;;;;;;8.26;100.00;-18250.53;4950966;28;20051;-84
2023/04/11 05:40:08;;;;;;;14.52;2.90;;;;;;;8.28;100.00;-18251.06;4944744;28;20533;-83
2023/04/11 05:42:34;;;;;;;12.65;3.50;;;;;;;8.30;100.00;-18251.63;4937188;28;20078;-83
2023/04/11 05:45:00;;;;;;;15.00;4.20;;;;;;;8.33;100.00;-18252.44;4943524;28;20071;-83
2023/04/11 05:47:25;;;;;;;12.45;4.25;;;;;;;8.34;100.00;-18252.72;4940605;28;20058;-82
2023/04/11 05:49:50;;;;;;;13.20;3.65;;;;;;;8.29;100.00;-18251.22;4943827;28;20066;-81
2023/04/11 05:52:16;;;;;;;38.63;11.50;;;;;;;8.38;100.00;-18253.69;4942596;28;20499;-82
2023/04/11 05:54:41;;;;;;;17.90;4.00;;;;;;;8.26;100.00;-18250.38;4937388;28;20055;-81
2023/04/11 05:57:06;;;;;;;18.13;4.50;;;;;;;8.18;100.00;-18248.19;4947126;28;20399;-83
2023/04/11 05:59:33;;;;;;;14.25;3.63;;;;;;;8.24;100.00;-18249.84;4938281;28;20043;-82
2023/04/11 06:01:59;;;;;;;16.33;4.07;;;;;;;8.18;100.00;-18248.31;4945695;28;20075;-81
2023/04/11 06:04:24;;;;;;;11.68;3.35;;;;;;;8.06;100.00;-18245.16;4955951;28;20047;-82
2023/04/11 06:06:51;;;;;;;12.13;2.92;;;;;;;8.09;100.00;-18245.97;4940340;28;20502;-82
2023/04/11 06:09:17;;;;;;;11.52;3.20;;;;;;;8.10;100.00;-18246.25;4945704;28;20109;-83
2023/04/11 06:11:42;;;;;;;10.40;2.67;;;;;;;8.12;100.00;-18246.66;4938395;28;20056;-82
2023/04/11 06:14:08;;;;;;;8.95;2.38;;;;;;;8.08;100.00;-18245.56;4940827;28;20386;-81
2023/04/11 06:16:35;;;;;;;11.27;2.50;;;;;;;8.16;100.00;-18247.63;4943212;28;20056;-82
2023/04/11 06:19:02;;;;;;;8.38;2.85;;;;;;;8.17;100.00;-18248.03;4944023;28;20419;-83
2023/04/11 06:21:27;;;;;;;12.70;2.30;;;;;;;8.27;100.00;-18250.78;4941669;28;20038;-84
2023/04/11 06:23:53;;;;;;;8.57;2.10;;;;;;;8.29;100.00;-18251.22;4948408;28;20043;-82
2023/04/11 06:26:18;;;;;;;12.88;2.42;;;;;;;8.29;100.00;-18251.22;4941372;28;20035;-82
2023/04/11 06:28:43;;;;;;;13.02;2.63;;;;;;;8.29;100.00;-18251.22;4936736;28;20046;-83
2023/04/11 06:31:09;;;;;;;9.55;2.65;;;;;;;8.37;100.00;-18253.41;4941651;28;20051;-82
2023/04/11 06:33:35;;;;;;;8.02;2.30;;;;;;;8.42;100.00;-18254.66;4940586;28;20039;-84
2023/04/11 06:36:00;;;;;;;7.57;2.50;;;;;;;8.53;100.00;-18257.69;4943153;28;20519;-83
2023/04/11 06:38:26;;;;;;;11.60;2.20;;;;;;;8.48;100.00;-18256.31;4940565;28;20118;-84
2023/04/11 06:40:53;;;;;;;12.52;2.50;;;;;;;8.50;100.00;-18257.00;4939685;28;20059;-83
2023/04/11 06:43:18;;;;;;;10.20;2.92;;;;;;;8.53;100.00;-18257.69;4939202;28;20055;-84
2023/04/11 06:45:45;;;;;;;8.32;2.63;;;;;;;8.55;100.00;-18258.25;4940400;28;20064;-83
2023/04/11 06:48:11;;;;;;;7.47;1.90;;;;;;;8.52;100.00;-18257.56;4920145;29;20043;-83
2023/04/11 06:50:38;;;;;;;6.50;2.00;;;;;;;8.54;100.00;-18257.97;4921742;29;20047;-83
2023/04/11 06:53:03;;;;;;;14.50;2.60;;;;;;;8.57;100.00;-18258.94;4920587;29;20075;-83
2023/04/11 06:55:29;;;;;;;5.22;1.88;;;;;;;8.61;100.00;-18259.88;4914240;28;20044;-83
2023/04/11 06:57:55;;;;;;;11.27;2.10;;;;;;;8.55;100.00;-18258.25;4922737;29;20130;-82
2023/04/11 07:00:20;;;;;;;6.53;1.70;;;;;;;8.60;100.00;-18259.63;4919268;29;20055;-83
2023/04/11 07:02:45;;;;;;;8.32;3.05;;;;;;;8.53;100.00;-18257.69;4919958;29;20043;-82
2023/04/11 07:05:11;;;;;;;4.82;1.70;;;;;;;8.50;100.00;-18256.88;4921113;29;20048;-83
2023/04/11 07:07:37;;;;;;;11.68;1.60;;;;;;;8.55;100.00;-18258.38;4919771;29;20056;-83
2023/04/11 07:10:03;;;;;;;8.52;1.90;;;;;;;8.50;100.00;-18256.88;4931339;29;20036;-82
2023/04/11 07:12:29;;;;;;;7.32;1.65;;;;;;;8.59;100.00;-18259.34;4916259;28;20056;-84
2023/04/11 07:14:54;;;;;;;6.22;1.30;;;;;;;8.59;100.00;-18259.47;4920271;29;20333;-84
2023/04/11 07:17:20;;;;;;;4.78;1.50;;;;;;;8.61;100.00;-18259.88;4923812;29;20063;-82
2023/04/11 07:19:45;;;;;;;7.30;1.40;;;;;;;8.62;100.00;-18260.16;4914885;29;20083;-82
2023/04/11 07:22:10;;;;;;;5.43;1.25;;;;;;;8.72;100.00;-18262.91;4921152;29;20048;-84
2023/04/11 07:24:36;;;;;;;8.52;1.88;;;;;;;8.74;100.00;-18263.47;4921955;29;20044;-82
2023/04/11 07:27:01;;;;;;;11.27;2.08;;;;;;;8.78;100.00;-18264.56;4918553;29;20048;-83
2023/04/11 07:29:27;;;;;;;9.55;1.38;;;;;;;8.90;100.00;-18267.59;4908866;29;20185;-84
2023/04/11 07:31:53;;;;;;;9.05;1.85;;;;;;;8.96;100.00;-18269.25;4923446;29;20086;-82
2023/04/11 07:34:18;;;;;;;7.18;1.45;;;;;;;9.00;100.00;-18270.34;4922799;28;20117;-84
2023/04/11 07:36:44;;;;;;;12.27;1.80;;;;;;;8.95;100.00;-18269.09;4918873;29;20066;-83
2023/04/11 07:39:11;;;;;;;9.05;1.35;;;;;;;8.98;100.00;-18269.81;4915419;29;20032;-83
2023/04/11 07:41:36;;;;;;;7.97;1.55;;;;;;;9.05;100.00;-18271.72;4914994;29;20048;-82
2023/04/11 07:44:06;;;;;;;9.68;1.90;;;;;;;9.14;100.00;-18274.19;4942034;28;20040;-83
2023/04/11 07:46:31;;;;;;;10.80;2.08;;;;;;;9.13;100.00;-18273.78;4925326;28;20043;-82
2023/04/11 07:48:56;;;;;;;13.75;3.30;;;;;;;9.17;100.00;-18275.03;4922403;29;20048;-83
2023/04/11 07:51:22;;;;;;;14.82;2.67;;;;;;;9.19;100.00;-18275.44;4927384;29;20059;-83
2023/04/11 07:53:47;;;;;;;11.25;2.33;;;;;;;9.21;100.00;-18276.13;4924599;29;20637;-83
2023/04/11 07:56:14;;;;;;;6.10;1.48;;;;;;;9.22;100.00;-18276.41;4922707;29;20047;-82
2023/04/11 07:58:39;;;;;;;10.00;2.65;;;;;;;9.23;100.00;-18276.66;4917750;29;20139;-82
2023/04/11 08:01:07;;;;;;;12.40;2.30;;;;;;;9.27;100.00;-18277.78;4930322;29;20519;-83
2023/04/11 08:03:33;;;;;;;10.10;2.70;;;;;;;9.44;100.00;-18282.19;4930196;29;20046;-83
2023/04/11 08:05:58;;;;;;;11.73;2.83;;;;;;;9.56;100.00;-18285.47;4929112;29;20284;-82
2023/04/11 08:08:24;;;;;;;13.35;2.53;;;;;;;9.66;100.00;-18288.22;4930165;29;20404;-83
2023/04/11 08:10:50;;;;;;;6.88;1.35;;;;;;;9.67;100.00;-18288.50;4926813;29;20072;-82
2023/04/11 08:13:15;;;;;;;10.95;1.65;;;;;;;9.73;100.00;-18289.88;4930956;29;20301;-82
2023/04/11 08:15:41;;;;;;;8.15;2.63;;;;;;;9.73;100.00;-18290.00;4927323;29;20047;-80
2023/04/11 08:18:06;;;;;;;7.75;1.75;;;;;;;9.89;100.00;-18294.28;4927570;29;20040;-82
2023/04/11 08:20:32;;;;;;;8.25;2.10;;;;;;;9.91;100.00;-18294.81;4927363;29;20086;-82
2023/04/11 08:22:58;;;;;;;6.40;1.80;;;;;;;9.93;100.00;-18295.50;4929350;29;20068;-83
2023/04/11 08:25:23;;;;;;;16.05;2.85;;;;;;;9.88;100.00;-18294.13;4920895;29;20512;-82
2023/04/11 08:27:49;;;;;;;13.23;3.45;;;;;;;10.04;100.00;-18298.25;4930275;29;20055;-81
2023/04/11 08:30:15;;;;;;;8.05;2.15;;;;;;;10.09;100.00;-18299.63;4926808;29;20051;-82
2023/04/11 08:32:41;;;;;;;12.07;2.58;;;;;;;10.17;100.00;-18301.97;4925731;29;20048;-80
2023/04/11 08:35:07;;;;;;;11.75;2.75;;;;;;;10.22;100.00;-18303.22;4923272;29;20508;-82
2023/04/11 08:37:32;;;;;;;12.18;2.38;;;;;;;10.37;100.00;-18307.19;4934009;28;20052;-83
2023/04/11 08:39:57;;;;;;;8.73;1.90;;;;;;;10.48;100.00;-18310.09;4952186;28;20043;-82
2023/04/11 08:42:28;;;;;;;9.75;2.08;;;;;;;10.53;100.00;-18311.59;4946135;28;20040;-82
2023/04/11 08:45:01;;;;;;;7.55;1.40;;;;;;;10.54;100.00;-18311.88;4948480;28;20047;-83
2023/04/11 08:47:26;;;;;;;9.77;2.42;;;;;;;10.57;100.00;-18312.56;4941969;28;20055;-83
2023/04/11 08:49:52;;;;;;;7.45;1.58;;;;;;;10.72;100.00;-18316.69;4946013;28;20375;-82
2023/04/11 08:52:19;;;;;;;7.72;1.58;;;;;;;10.86;100.00;-18320.25;4946223;28;20053;-83
2023/04/11 08:54:45;;;;;;;8.18;1.50;;;;;;;10.82;100.00;-18319.28;4938891;28;20082;-82
2023/04/11 08:57:20;;;;;;;4.80;1.70;;;;;;;10.92;100.00;-18321.91;4937057;28;20388;-82
2023/04/11 08:59:52;;;;;;;7.07;1.33;;;;;;;10.85;100.00;-18320.13;4937265;28;20438;-82
2023/04/11 09:02:17;;;;;;;8.43;1.52;;;;;;;10.90;100.00;-18321.50;4950162;28;20042;-82
2023/04/11 09:04:43;;;;;;;4.47;1.00;;;;;;;10.85;100.00;-18320.13;4941256;28;20051;-82
2023/04/11 09:07:10;;;;;;;6.03;1.30;;;;;;;10.86;100.00;-18320.38;4941107;28;20047;-82
2023/04/11 09:09:36;;;;;;;5.93;1.17;;;;;;;10.95;100.00;-18322.88;4944588;28;20043;-81
2023/04/11 09:12:03;;;;;;;6.63;1.30;;;;;;;11.07;100.00;-18326.16;4945552;28;20039;-81
2023/04/11 09:14:29;;;;;;;5.65;1.30;;;;;;;11.12;100.00;-18327.41;4934532;28;20964;-81
2023/04/11 09:17:01;;;;;;;10.68;1.65;;;;;;;11.07;100.00;-18326.03;4939300;28;20039;-81
2023/04/11 09:19:28;;;;;;;6.00;1.40;;;;;;;10.98;100.00;-18323.69;4937539;28;20566;-81
2023/04/11 09:21:59;;;;;;;8.43;1.63;;;;;;;11.09;100.00;-18326.44;4941240;28;20510;-82
2023/04/11 09:24:30;;;;;;;7.72;1.63;;;;;;;11.14;100.00;-18327.81;4940930;28;20046;-82
2023/04/11 09:27:25;;;;;;;7.85;1.40;;;;;;;11.24;100.00;-18330.56;4942080;28;20051;-83
2023/04/11 09:29:50;;;;;;;4.75;1.00;;;;;;;11.33;100.00;-18333.03;4937205;28;20126;-83
2023/04/11 09:32:34;;;;;;;9.15;2.00;;;;;;;11.31;100.00;-18332.47;4943968;28;20339;-82
2023/04/11 09:35:09;;;;;;;8.05;1.50;;;;;;;11.35;100.00;-18333.56;4958600;28;20492;-82
2023/04/11 09:37:44;;;;;;;6.68;1.48;;;;;;;11.28;100.00;-18331.78;4944754;28;20035;-83
2023/04/11 09:40:10;;;;;;;6.60;1.83;;;;;;;11.19;100.00;-18329.19;4945272;28;20043;-83
2023/04/11 09:42:36;;;;;;;5.63;1.30;;;;;;;11.19;100.00;-18329.19;4933684;28;20086;-81
2023/04/11 09:45:02;;;;;;;6.22;1.70;;;;;;;11.19;100.00;-18329.31;4948095;29;20047;-83
2023/04/11 09:47:33;;;;;;;7.80;1.55;;;;;;;11.18;100.00;-18328.91;4948611;28;20058;-80
2023/04/11 09:49:59;;;;;;;7.40;2.00;;;;;;;11.15;100.00;-18328.09;4949212;28;20048;-83
2023/04/11 09:52:25;;;;;;;7.63;1.77;;;;;;;11.18;100.00;-18328.91;4942219;28;20039;-82
2023/04/11 09:54:52;;;;;;;7.28;1.65;;;;;;;11.21;100.00;-18329.72;4942297;28;20047;-83
2023/04/11 09:57:21;;;;;;;7.25;1.40;;;;;;;11.35;100.00;-18333.44;4946231;28;20094;-82
2023/04/11 09:59:47;;;;;;;4.75;1.30;;;;;;;11.47;100.00;-18336.72;4942663;28;20166;-82
2023/04/11 10:02:13;;;;;;;5.88;1.33;;;;;;;11.48;100.00;-18337.16;4949357;28;20508;-83
2023/04/11 10:04:39;;;;;;;5.10;1.38;;;;;;;11.39;100.00;-18334.66;4946679;28;20061;-82
2023/04/11 10:07:11;;;;;;;5.32;1.42;;;;;;;11.44;100.00;-18336.03;4942001;28;20048;-82
2023/04/11 10:09:39;;;;;;;3.97;1.33;;;;;;;11.59;100.00;-18340.03;4946424;28;20040;-81
2023/04/11 10:12:05;;;;;;;9.30;1.33;;;;;;;11.62;100.00;-18340.84;4944705;28;20050;-83
2023/04/11 10:14:41;;;;;;;6.07;1.85;;;;;;;11.88;100.00;-18347.72;4935936;28;20039;-81
2023/04/11 10:17:12;;;;;;;7.78;1.38;;;;;;;11.92;100.00;-18348.94;4946464;28;20137;-81
2023/04/11 10:19:37;;;;;;;7.65;1.75;;;;;;;11.99;100.00;-18350.72;4942823;28;20046;-83
2023/04/11 10:22:02;;;;;;;7.10;1.33;;;;;;;12.11;100.00;-18353.88;4945287;28;20097;-81
2023/04/11 10:24:28;;;;;;;9.98;1.70;;;;;;;12.03;100.00;-18351.69;4945122;28;20076;-83
2023/04/11 10:26:59;;;;;;;9.48;1.58;;;;;;;11.97;100.00;-18350.19;4944819;28;20051;-83
2023/04/11 10:29:27;;;;;;;6.68;1.33;;;;;;;11.94;100.00;-18349.38;4952606;28;20044;-82
2023/04/11 10:32:14;;;;;;;6.20;1.30;;;;;;;11.83;99.89;-18346.47;4942231;28;20525;-81
2023/04/11 10:34:48;;;;;;;7.35;1.35;;;;;;;11.82;100.00;-18346.19;4950291;28;20059;-80
2023/04/11 10:37:14;;;;;;;5.75;1.48;;;;;;;11.82;100.00;-18346.06;4944489;28;20046;-83
2023/04/11 10:39:59;;;;;;;6.80;1.40;;;;;;;11.88;100.00;-18347.84;4940303;28;20040;-81
2023/04/11 10:42:27;;;;;;;8.43;2.35;;;;;;;11.92;100.00;-18348.81;4939129;28;20043;-80
2023/04/11 10:45:25;;;;;;;9.60;1.50;;;;;;;11.95;97.12;-18349.63;4948443;28;20665;-82
2023/04/11 10:47:50;;;;;;;6.82;1.58;;;;;;;11.99;94.17;-18350.59;4943338;28;20495;-82
2023/04/11 10:50:32;;;;;;;4.78;1.10;;;;;;;11.91;97.05;-18348.69;4947450;28;20047;-81
2023/04/11 10:53:02;;;;;;;8.80;1.67;;;;;;;11.99;95.12;-18350.59;4957199;28;20039;-82
2023/04/11 10:55:31;;;;;;;5.57;1.05;;;;;;;12.06;87.30;-18352.53;4944346;28;20063;-81
2023/04/11 10:58:23;;;;;;;;;;;;;;;12.20;80.96;-18356.38;4931569;28;20091;-81
2023/04/11 11:00:48;;;;;;;7.07;1.70;;;;;;;12.17;77.72;-18355.69;4941995;28;19927;-81
2023/04/11 11:03:19;;;;;;;3.65;1.52;;;;;;;12.28;81.96;-18358.56;4944188;28;20050;-81
2023/04/11 11:05:46;;;;;;;4.10;1.30;;;;;;;12.28;76.07;-18358.56;4948967;28;20577;-81
2023/04/11 11:08:11;;;;;;;8.30;1.58;;;;;;;12.25;74.33;-18357.72;4949695;28;20074;-82
2023/04/11 11:10:41;;;;;;;4.82;1.40;;;;;;;12.28;76.22;-18358.56;4944358;28;20047;-81
2023/04/11 11:13:08;;;;;;;6.15;1.45;;;;;;;12.41;79.50;-18362.13;4937440;28;20319;-82
2023/04/11 11:15:37;;;;;;;7.28;1.23;;;;;;;12.45;76.80;-18362.94;4931436;28;20039;-80